createdAt,value
2022-07-29T00:01:42.108Z,20.62
2022-07-29T00:04:10.394Z,20.60
2022-07-29T00:06:38.601Z,20.59
2022-07-29T00:09:06.698Z,20.58
2022-07-29T00:11:34.775Z,20.58
2022-07-29T00:14:03.236Z,20.56
2022-07-29T00:16:31.276Z,20.54
2022-07-29T00:19:02.115Z,20.53
2022-07-29T00:21:30.941Z,20.50
2022-07-29T00:23:59.054Z,20.42
2022-07-29T00:26:28.955Z,20.30
2022-07-29T00:29:30.834Z,20.24
2022-07-29T00:31:45.506Z,20.16
2022-07-29T00:34:32.346Z,20.07
2022-07-29T00:37:00.618Z,19.97
2022-07-29T00:39:28.686Z,19.92
2022-07-29T00:41:57.160Z,19.85
2022-07-29T00:44:25.215Z,19.76
2022-07-29T00:46:53.215Z,19.69
2022-07-29T00:49:21.394Z,19.64
2022-07-29T00:51:50.696Z,19.58
2022-07-29T00:54:19.333Z,19.52
2022-07-29T00:56:47.829Z,19.47
2022-07-29T00:59:15.874Z,19.43
2022-07-29T01:01:43.937Z,19.41
2022-07-29T01:04:12.251Z,19.39
2022-07-29T01:06:43.568Z,19.39
2022-07-29T01:09:12.117Z,19.38
2022-07-29T01:11:40.797Z,19.35
2022-07-29T01:14:09.828Z,19.30
2022-07-29T01:16:50.932Z,19.24
2022-07-29T01:19:32.437Z,19.20
2022-07-29T01:22:15.011Z,19.19
2022-07-29T01:24:56.382Z,19.19
2022-07-29T01:27:49.835Z,19.18
2022-07-29T01:30:18.095Z,19.13
2022-07-29T01:32:51.211Z,19.11
2022-07-29T01:35:26.344Z,19.09
2022-07-29T01:38:00.701Z,19.09
2022-07-29T01:40:35.982Z,19.09
2022-07-29T01:43:28.632Z,19.07
2022-07-29T01:46:06.869Z,19.03
2022-07-29T01:48:49.743Z,19.03
2022-07-29T01:51:28.428Z,19.02
2022-07-29T01:54:08.468Z,19.02
2022-07-29T01:56:39.230Z,19.03
2022-07-29T01:59:09.639Z,19.01
2022-07-29T02:01:41.941Z,19.03
2022-07-29T02:04:12.540Z,19.05
2022-07-29T02:07:05.045Z,19.05
2022-07-29T02:09:36.283Z,19.05
2022-07-29T02:12:07.475Z,19.03
2022-07-29T02:14:41.620Z,19.01
2022-07-29T02:17:11.949Z,19.03
2022-07-29T02:19:43.091Z,19.02
2022-07-29T02:22:13.241Z,19.03
2022-07-29T02:24:43.067Z,19.03
2022-07-29T02:27:13.127Z,19.03
2022-07-29T02:29:42.023Z,19.03
2022-07-29T02:32:14.952Z,19.00
2022-07-29T02:34:44.859Z,18.96
2022-07-29T02:37:14.007Z,18.92
2022-07-29T02:39:45.223Z,18.90
2022-07-29T02:42:17.468Z,18.89
2022-07-29T02:44:46.134Z,18.86
2022-07-29T02:47:20.449Z,18.85
2022-07-29T02:50:09.440Z,18.83
2022-07-29T02:52:53.546Z,18.79
2022-07-29T02:55:34.906Z,18.78
2022-07-29T02:58:09.599Z,18.79
2022-07-29T03:00:40.508Z,18.81
2022-07-29T03:03:14.286Z,18.83
2022-07-29T03:05:42.624Z,18.85
2022-07-29T03:08:13.959Z,18.86
2022-07-29T03:10:45.601Z,18.86
2022-07-29T03:13:14.799Z,18.89
2022-07-29T03:15:47.003Z,18.91
2022-07-29T03:18:16.339Z,18.94
2022-07-29T03:20:44.730Z,18.96
2022-07-29T03:23:12.692Z,19.00
2022-07-29T03:25:40.793Z,19.04
2022-07-29T03:28:09.810Z,19.09
2022-07-29T03:30:38.006Z,19.13
2022-07-29T03:33:13.529Z,19.19
2022-07-29T03:35:41.970Z,19.24
2022-07-29T03:38:09.975Z,19.29
2022-07-29T03:40:53.405Z,19.35
2022-07-29T03:43:24.603Z,19.40
2022-07-29T03:45:56.041Z,19.45
2022-07-29T03:48:27.690Z,19.49
2022-07-29T03:50:56.705Z,19.52
2022-07-29T03:53:24.928Z,19.54
2022-07-29T03:55:59.362Z,19.57
2022-07-29T03:58:28.804Z,19.57
2022-07-29T04:00:58.128Z,19.58
2022-07-29T04:03:26.721Z,19.60
2022-07-29T04:06:03.543Z,19.62
2022-07-29T04:08:31.596Z,19.63
2022-07-29T04:11:00.452Z,19.66
2022-07-29T04:13:28.954Z,19.68
2022-07-29T04:15:57.404Z,19.71
2022-07-29T04:18:25.795Z,19.73
2022-07-29T04:20:53.911Z,19.77
2022-07-29T04:23:21.952Z,19.80
2022-07-29T04:25:50.026Z,19.83
2022-07-29T04:28:18.007Z,19.88
2022-07-29T04:30:46.071Z,19.90
2022-07-29T04:33:14.143Z,19.93
2022-07-29T04:35:50.045Z,19.95
2022-07-29T04:38:20.361Z,19.97
2022-07-29T04:40:49.753Z,19.99
2022-07-29T04:43:21.268Z,20.03
2022-07-29T04:45:51.522Z,20.05
2022-07-29T04:48:20.612Z,20.06
2022-07-29T04:50:51.032Z,20.08
2022-07-29T04:53:20.003Z,20.10
2022-07-29T04:55:48.127Z,20.14
2022-07-29T04:58:16.715Z,20.17
2022-07-29T05:00:45.074Z,20.20
2022-07-29T05:03:13.282Z,20.22
2022-07-29T05:05:42.064Z,20.25
2022-07-29T05:08:10.040Z,20.27
2022-07-29T05:10:39.278Z,20.30
2022-07-29T05:13:08.759Z,20.35
2022-07-29T05:15:37.896Z,20.39
2022-07-29T05:18:06.571Z,20.43
2022-07-29T05:20:35.753Z,20.42
2022-07-29T05:23:04.271Z,20.42
2022-07-29T05:25:43.240Z,20.42
2022-07-29T05:28:13.482Z,20.41
2022-07-29T05:30:41.627Z,20.41
2022-07-29T05:33:35.418Z,20.42
2022-07-29T05:36:00.568Z,20.42
2022-07-29T05:38:30.088Z,20.42
2022-07-29T05:41:00.034Z,20.44
2022-07-29T05:43:29.689Z,20.43
2022-07-29T05:45:58.733Z,20.44
2022-07-29T05:48:26.891Z,20.47
2022-07-29T05:50:55.938Z,20.50
2022-07-29T05:53:24.290Z,20.55
2022-07-29T05:55:53.051Z,20.57
2022-07-29T05:58:21.463Z,20.58
2022-07-29T06:00:49.592Z,20.61
2022-07-29T06:03:17.788Z,20.64
2022-07-29T06:05:45.882Z,20.69
2022-07-29T06:08:14.077Z,20.73
2022-07-29T06:10:42.286Z,20.78
2022-07-29T06:13:10.578Z,20.85
2022-07-29T06:15:39.004Z,20.92
2022-07-29T06:18:10.296Z,20.98
2022-07-29T06:20:39.388Z,21.07
2022-07-29T06:23:07.438Z,21.15
2022-07-29T06:25:38.861Z,21.22
2022-07-29T06:28:07.612Z,21.28
2022-07-29T06:30:35.768Z,21.34
2022-07-29T06:33:04.998Z,21.42
2022-07-29T06:35:39.461Z,21.48
2022-07-29T06:38:30.001Z,21.55
2022-07-29T06:41:04.004Z,21.64
2022-07-29T06:43:52.556Z,21.71
2022-07-29T06:46:23.499Z,21.81
2022-07-29T06:48:52.984Z,21.89
2022-07-29T06:51:23.218Z,21.97
2022-07-29T06:54:00.216Z,22.07
2022-07-29T06:56:38.677Z,22.14
2022-07-29T06:59:09.037Z,22.21
2022-07-29T07:01:41.854Z,22.27
2022-07-29T07:04:10.121Z,22.30
2022-07-29T07:06:38.917Z,22.33
2022-07-29T07:09:07.223Z,22.39
2022-07-29T07:11:35.224Z,22.46
2022-07-29T07:14:04.278Z,22.55
2022-07-29T07:16:33.142Z,22.65
2022-07-29T07:19:01.790Z,22.75
2022-07-29T07:21:31.173Z,22.88
2022-07-29T07:24:00.193Z,23.01
2022-07-29T07:26:28.755Z,23.15
2022-07-29T07:28:56.958Z,23.28
2022-07-29T07:31:24.988Z,23.43
2022-07-29T07:33:54.764Z,23.54
2022-07-29T07:36:37.848Z,23.62
2022-07-29T07:39:25.148Z,23.79
2022-07-29T07:41:55.979Z,23.92
2022-07-29T07:44:24.173Z,24.05
2022-07-29T07:46:52.340Z,24.18
2022-07-29T07:49:21.042Z,24.29
2022-07-29T07:51:50.680Z,24.42
2022-07-29T07:54:20.695Z,24.55
2022-07-29T07:56:53.122Z,24.67
2022-07-29T07:59:21.653Z,24.78
2022-07-29T08:01:56.045Z,24.90
2022-07-29T08:04:28.619Z,25.03
2022-07-29T08:06:57.855Z,25.17
2022-07-29T08:09:29.608Z,25.27
2022-07-29T08:11:59.953Z,25.39
2022-07-29T08:14:27.909Z,25.50
2022-07-29T08:16:55.828Z,25.60
2022-07-29T08:19:23.751Z,25.72
2022-07-29T08:21:54.899Z,25.85
2022-07-29T08:24:41.964Z,26.01
2022-07-29T08:27:33.422Z,26.18
2022-07-29T08:30:00.943Z,26.36
2022-07-29T08:32:51.223Z,26.50
2022-07-29T08:35:17.470Z,26.61
2022-07-29T08:37:45.337Z,26.65
2022-07-29T08:40:13.298Z,26.69
2022-07-29T08:42:41.516Z,26.75
2022-07-29T08:45:09.585Z,26.82
2022-07-29T08:47:40.941Z,26.89
2022-07-29T08:50:09.722Z,26.95
2022-07-29T08:52:38.965Z,27.05
2022-07-29T08:55:07.627Z,27.13
2022-07-29T08:57:37.140Z,27.23
2022-07-29T09:00:08.005Z,27.33
2022-07-29T09:02:46.819Z,27.45
2022-07-29T09:05:16.654Z,27.56
2022-07-29T09:07:45.572Z,27.67
2022-07-29T09:10:13.425Z,27.74
2022-07-29T09:12:41.669Z,27.79
2022-07-29T09:15:09.641Z,27.89
2022-07-29T09:17:44.696Z,28.02
2022-07-29T09:20:14.358Z,28.15
2022-07-29T09:22:42.478Z,28.26
2022-07-29T09:25:12.844Z,28.36
2022-07-29T09:27:43.255Z,28.43
2022-07-29T09:30:11.798Z,28.46
2022-07-29T09:32:56.464Z,28.46
2022-07-29T09:35:25.392Z,28.45
2022-07-29T09:37:53.392Z,28.47
2022-07-29T09:40:23.015Z,28.53
2022-07-29T09:42:51.966Z,28.58
2022-07-29T09:45:29.513Z,28.68
2022-07-29T09:48:00.211Z,28.74
2022-07-29T09:50:38.098Z,28.78
2022-07-29T09:53:06.036Z,28.84
2022-07-29T09:55:33.932Z,28.88
2022-07-29T09:58:19.016Z,28.91
2022-07-29T10:00:47.660Z,28.97
2022-07-29T10:03:16.781Z,29.07
2022-07-29T10:05:45.403Z,29.16
2022-07-29T10:08:13.855Z,29.18
2022-07-29T10:10:43.035Z,29.17
2022-07-29T10:13:16.193Z,29.15
2022-07-29T10:15:46.475Z,29.09
2022-07-29T10:18:18.616Z,29.06
2022-07-29T10:20:46.821Z,29.11
2022-07-29T10:23:15.114Z,29.20
2022-07-29T10:25:46.160Z,29.35
2022-07-29T10:28:16.781Z,29.50
2022-07-29T10:30:46.662Z,29.62
2022-07-29T10:33:33.497Z,29.66
2022-07-29T10:36:07.626Z,29.59
2022-07-29T10:38:52.618Z,29.41
2022-07-29T10:41:50.025Z,29.31
2022-07-29T10:44:23.114Z,29.22
2022-07-29T10:46:52.861Z,29.12
2022-07-29T10:49:25.063Z,29.02
2022-07-29T10:51:58.176Z,28.92
2022-07-29T10:54:42.567Z,28.82
2022-07-29T10:57:21.661Z,28.74
2022-07-29T11:00:06.690Z,28.64
2022-07-29T11:02:41.929Z,28.57
2022-07-29T11:05:12.152Z,28.53
2022-07-29T11:07:45.533Z,28.50
2022-07-29T11:10:14.518Z,28.46
2022-07-29T11:12:42.471Z,28.43
2022-07-29T11:15:21.931Z,28.39
2022-07-29T11:17:59.490Z,28.34
2022-07-29T11:20:45.913Z,28.29
2022-07-29T11:23:33.746Z,28.26
2022-07-29T11:29:28.195Z,28.15
2022-07-29T11:32:09.001Z,28.10
2022-07-29T11:34:43.900Z,28.03
2022-07-29T11:37:15.053Z,27.99
2022-07-29T11:40:04.052Z,27.94
2022-07-29T11:42:34.530Z,27.89
2022-07-29T11:45:09.026Z,27.83
2022-07-29T11:47:54.142Z,27.78
2022-07-29T11:50:30.112Z,27.72
2022-07-29T11:52:58.054Z,27.68
2022-07-29T11:55:32.368Z,27.64
2022-07-29T11:58:04.392Z,27.60
2022-07-29T12:00:33.777Z,27.57
2022-07-29T12:03:05.369Z,27.55
2022-07-29T12:05:37.001Z,27.53
2022-07-29T12:08:07.085Z,27.50
2022-07-29T12:10:41.462Z,27.47
2022-07-29T12:13:10.443Z,27.46
2022-07-29T12:15:45.624Z,27.43
2022-07-29T12:18:15.894Z,27.37
2022-07-29T12:20:46.546Z,27.30
2022-07-29T12:23:16.099Z,27.23
2022-07-29T12:25:45.353Z,27.14
2022-07-29T12:28:26.819Z,27.03
2022-07-29T12:30:55.754Z,26.92
2022-07-29T12:33:25.678Z,26.78
2022-07-29T12:36:06.775Z,26.65
2022-07-29T12:38:37.226Z,26.54
2022-07-29T12:41:05.293Z,26.42
2022-07-29T12:43:33.310Z,26.25
2022-07-29T12:46:13.047Z,26.09
2022-07-29T12:48:41.728Z,25.90
2022-07-29T12:51:11.234Z,25.77
2022-07-29T12:53:39.817Z,25.63
2022-07-29T12:56:41.270Z,25.47
2022-07-29T12:59:15.103Z,25.28
2022-07-29T13:01:43.440Z,25.06
2022-07-29T13:04:12.164Z,24.89
2022-07-29T13:06:46.148Z,24.74
2022-07-29T13:09:23.528Z,24.59
2022-07-29T13:11:53.080Z,24.46
2022-07-29T13:14:39.806Z,24.31
2022-07-29T13:17:07.797Z,24.15
2022-07-29T13:19:37.752Z,24.05
2022-07-29T13:22:06.098Z,23.94
2022-07-29T13:24:34.650Z,23.82
2022-07-29T13:27:05.689Z,23.73
2022-07-29T13:29:34.361Z,23.67
2022-07-29T13:32:02.346Z,23.65
2022-07-29T13:34:30.239Z,23.63
2022-07-29T13:36:58.097Z,23.57
2022-07-29T13:39:26.051Z,23.52
2022-07-29T13:41:54.101Z,23.49
2022-07-29T13:44:24.428Z,23.46
2022-07-29T13:46:52.308Z,23.42
2022-07-29T13:49:20.242Z,23.38
2022-07-29T13:51:48.222Z,23.34
2022-07-29T13:54:16.506Z,23.28
2022-07-29T13:56:44.588Z,23.18
2022-07-29T13:59:14.404Z,23.03
2022-07-29T14:01:45.616Z,22.89
2022-07-29T14:04:14.668Z,22.75
2022-07-29T14:06:42.570Z,22.62
2022-07-29T14:09:11.596Z,22.52
2022-07-29T14:11:39.567Z,22.41
2022-07-29T14:14:07.636Z,22.31
2022-07-29T14:16:39.174Z,22.22
2022-07-29T14:19:10.134Z,22.09
2022-07-29T14:21:38.710Z,21.98
2022-07-29T14:24:17.620Z,21.88
2022-07-29T14:26:46.534Z,21.76
2022-07-29T14:29:14.867Z,21.67
2022-07-29T14:31:44.236Z,21.61
2022-07-29T14:34:12.159Z,21.55
2022-07-29T14:36:40.123Z,21.50
2022-07-29T14:39:08.605Z,21.48
2022-07-29T14:41:39.712Z,21.44
2022-07-29T14:44:08.388Z,21.41
2022-07-29T14:46:36.421Z,21.39
2022-07-29T14:49:04.709Z,21.36
2022-07-29T14:51:44.931Z,21.35
2022-07-29T14:54:12.799Z,21.33
2022-07-29T14:56:46.570Z,21.33
2022-07-29T14:59:15.306Z,21.33
2022-07-29T15:01:43.556Z,21.32
2022-07-29T15:04:11.427Z,21.33
2022-07-29T15:06:39.373Z,21.35
2022-07-29T15:09:07.334Z,21.34
2022-07-29T15:11:38.790Z,21.33
2022-07-29T15:14:07.222Z,21.31
2022-07-29T15:16:38.868Z,21.28
2022-07-29T15:19:07.538Z,21.27
2022-07-29T15:21:35.564Z,21.28
2022-07-29T15:24:09.749Z,21.29
2022-07-29T15:26:37.750Z,21.33
2022-07-29T15:29:05.710Z,21.36
2022-07-29T15:31:33.977Z,21.39
2022-07-29T15:34:05.912Z,21.44
2022-07-29T15:36:52.451Z,21.50
2022-07-29T15:39:21.818Z,21.57
2022-07-29T15:41:49.987Z,21.65
2022-07-29T15:44:18.351Z,21.75
2022-07-29T15:47:04.344Z,21.84
2022-07-29T15:49:48.667Z,21.95
2022-07-29T15:52:25.115Z,22.05
2022-07-29T15:54:55.716Z,22.10
2022-07-29T15:57:24.666Z,22.15
2022-07-29T15:59:52.836Z,22.24
2022-07-29T16:02:20.829Z,22.32
2022-07-29T16:04:49.034Z,22.41
2022-07-29T16:07:17.206Z,22.47
2022-07-29T16:09:49.311Z,22.53
2022-07-29T16:12:20.699Z,22.57
2022-07-29T16:14:51.008Z,22.56
2022-07-29T16:17:19.393Z,22.56
2022-07-29T16:19:47.319Z,22.56
2022-07-29T16:22:15.368Z,22.55
2022-07-29T16:24:43.268Z,22.52
2022-07-29T16:27:11.203Z,22.53
2022-07-29T16:29:39.795Z,22.55
2022-07-29T16:32:07.921Z,22.54
2022-07-29T16:34:36.161Z,22.52
2022-07-29T16:37:04.632Z,22.51
2022-07-29T16:39:33.032Z,22.52
2022-07-29T16:42:03.961Z,22.56
2022-07-29T16:44:34.896Z,22.59
2022-07-29T16:47:04.149Z,22.61
2022-07-29T16:49:32.260Z,22.63
2022-07-29T16:52:00.230Z,22.65
2022-07-29T16:54:29.224Z,22.67
2022-07-29T16:56:57.617Z,22.68
2022-07-29T16:59:25.855Z,22.68
2022-07-29T17:01:53.812Z,22.65
2022-07-29T17:04:22.952Z,22.61
2022-07-29T17:06:51.416Z,22.58
2022-07-29T17:09:19.635Z,22.54
2022-07-29T17:11:54.991Z,22.53
2022-07-29T17:14:27.167Z,22.55
2022-07-29T17:17:01.347Z,22.55
2022-07-29T17:19:32.235Z,22.56
2022-07-29T17:22:13.074Z,22.55
2022-07-29T17:24:44.209Z,22.57
2022-07-29T17:27:12.178Z,22.61
2022-07-29T17:29:40.281Z,22.65
2022-07-29T17:32:09.237Z,22.67
2022-07-29T17:34:37.993Z,22.69
2022-07-29T17:37:06.573Z,22.71
2022-07-29T17:39:35.751Z,22.71
2022-07-29T17:42:04.465Z,22.69
2022-07-29T17:44:32.500Z,22.66
2022-07-29T17:47:05.261Z,22.64
2022-07-29T17:49:36.396Z,22.59
2022-07-29T17:52:05.741Z,22.56
2022-07-29T17:54:33.645Z,22.52
2022-07-29T17:57:01.807Z,22.47
2022-07-29T17:59:30.034Z,22.42
2022-07-29T18:01:58.133Z,22.37
2022-07-29T18:04:26.190Z,22.33
2022-07-29T18:06:54.094Z,22.29
2022-07-29T18:09:22.007Z,22.25
2022-07-29T18:11:49.908Z,22.21
2022-07-29T18:14:17.798Z,22.20
2022-07-29T18:16:45.751Z,22.20
2022-07-29T18:19:14.451Z,22.17
2022-07-29T18:21:51.302Z,22.08
2022-07-29T18:24:25.837Z,21.98
2022-07-29T18:26:54.203Z,21.92
2022-07-29T18:29:22.095Z,21.88
2022-07-29T18:31:50.394Z,21.81
2022-07-29T18:34:18.553Z,21.76
2022-07-29T18:36:46.549Z,21.75
2022-07-29T18:39:20.332Z,21.76
2022-07-29T18:41:51.015Z,21.80
2022-07-29T18:44:22.057Z,21.82
2022-07-29T18:46:54.337Z,21.79
2022-07-29T18:49:22.987Z,21.75
2022-07-29T18:51:51.307Z,21.71
2022-07-29T18:54:19.644Z,21.64
2022-07-29T18:56:47.873Z,21.59
2022-07-29T18:59:20.332Z,21.54
2022-07-29T19:01:48.973Z,21.48
2022-07-29T19:04:17.815Z,21.45
2022-07-29T19:06:45.763Z,21.43
2022-07-29T19:09:13.832Z,21.42
2022-07-29T19:11:41.868Z,21.42
2022-07-29T19:14:09.999Z,21.41
2022-07-29T19:16:37.909Z,21.38
2022-07-29T19:19:07.373Z,21.35
2022-07-29T19:21:36.126Z,21.34
2022-07-29T19:24:08.410Z,21.31
2022-07-29T19:26:42.188Z,21.29
2022-07-29T19:29:10.125Z,21.28
2022-07-29T19:31:38.083Z,21.25
2022-07-29T19:34:06.092Z,21.22
2022-07-29T19:36:34.367Z,21.22
2022-07-29T19:39:05.700Z,21.22
2022-07-29T19:41:33.746Z,21.19
2022-07-29T19:44:02.062Z,21.19
2022-07-29T19:46:30.246Z,21.16
2022-07-29T19:48:58.437Z,21.11
2022-07-29T19:51:27.165Z,21.08
2022-07-29T19:53:55.110Z,21.04
2022-07-29T19:56:26.770Z,21.01
2022-07-29T19:58:57.163Z,20.96
2022-07-29T20:01:25.167Z,20.92
2022-07-29T20:03:53.967Z,20.90
2022-07-29T20:06:23.172Z,20.87
2022-07-29T20:08:56.722Z,20.85
2022-07-29T20:11:27.384Z,20.84
2022-07-29T20:13:55.327Z,20.83
2022-07-29T20:16:23.527Z,20.83
2022-07-29T20:18:53.359Z,20.80
2022-07-29T20:21:21.246Z,20.77
2022-07-29T20:23:49.084Z,20.76
2022-07-29T20:26:17.502Z,20.75
2022-07-29T20:28:49.305Z,20.73
2022-07-29T20:31:18.927Z,20.71
2022-07-29T20:33:47.193Z,20.70
2022-07-29T20:36:15.189Z,20.68
2022-07-29T20:38:43.130Z,20.66
2022-07-29T20:41:11.113Z,20.64
2022-07-29T20:43:39.321Z,20.62
2022-07-29T20:46:07.432Z,20.60
2022-07-29T20:48:35.573Z,20.57
2022-07-29T20:51:03.518Z,20.56
2022-07-29T20:53:31.434Z,20.56
2022-07-29T20:55:59.616Z,20.55
2022-07-29T20:58:27.543Z,20.54
2022-07-29T21:00:56.583Z,20.49
2022-07-29T21:03:24.587Z,20.42
2022-07-29T21:05:52.511Z,20.36
2022-07-29T21:08:20.410Z,20.30
2022-07-29T21:10:48.389Z,20.27
2022-07-29T21:13:22.877Z,20.25
2022-07-29T21:15:51.895Z,20.24
2022-07-29T21:18:33.133Z,20.24
2022-07-29T21:21:01.401Z,20.24
2022-07-29T21:23:30.254Z,20.22
2022-07-29T21:25:58.121Z,20.20
2022-07-29T21:28:41.548Z,20.20
2022-07-29T21:31:11.311Z,20.19
2022-07-29T21:33:43.960Z,20.16
2022-07-29T21:36:46.011Z,20.14
2022-07-29T21:39:07.026Z,20.13
2022-07-29T21:41:35.173Z,20.12
2022-07-29T21:44:03.130Z,20.13
2022-07-29T21:46:31.261Z,20.13
2022-07-29T21:48:59.310Z,20.13
2022-07-29T21:51:27.218Z,20.12
2022-07-29T21:53:55.133Z,20.13
2022-07-29T21:56:27.645Z,20.12
2022-07-29T21:58:55.993Z,20.14
2022-07-29T22:01:24.339Z,20.15
2022-07-29T22:03:52.258Z,20.17
2022-07-29T22:06:20.817Z,20.17
2022-07-29T22:08:48.776Z,20.14
2022-07-29T22:11:16.656Z,20.17
2022-07-29T22:13:44.567Z,20.19
2022-07-29T22:16:15.117Z,20.19
2022-07-29T22:18:46.975Z,20.17
2022-07-29T22:21:15.364Z,20.15
2022-07-29T22:23:43.369Z,20.14
2022-07-29T22:26:11.312Z,20.14
2022-07-29T22:28:39.164Z,20.16
2022-07-29T22:31:08.562Z,20.19
2022-07-29T22:33:36.443Z,20.21
2022-07-29T22:36:04.385Z,20.20
2022-07-29T22:38:32.254Z,20.19
2022-07-29T22:41:01.320Z,20.17
2022-07-29T22:43:29.640Z,20.17
2022-07-29T22:45:57.624Z,20.19
2022-07-29T22:48:25.780Z,20.19
2022-07-29T22:50:53.644Z,20.21
2022-07-29T22:53:21.504Z,20.23
2022-07-29T22:55:49.460Z,20.25
2022-07-29T22:58:17.291Z,20.27
2022-07-29T23:00:45.171Z,20.30
2022-07-29T23:03:12.970Z,20.33
2022-07-29T23:05:40.936Z,20.35
2022-07-29T23:08:08.790Z,20.32
2022-07-29T23:10:36.696Z,20.29
2022-07-29T23:13:04.706Z,20.27
2022-07-29T23:15:32.876Z,20.26
2022-07-29T23:18:01.153Z,20.25
2022-07-29T23:20:28.988Z,20.26
2022-07-29T23:22:56.929Z,20.28
2022-07-29T23:25:24.875Z,20.30
2022-07-29T23:27:52.696Z,20.31
2022-07-29T23:30:20.564Z,20.31
2022-07-29T23:32:48.381Z,20.33
2022-07-29T23:35:16.337Z,20.34
2022-07-29T23:37:44.337Z,20.35
2022-07-29T23:40:14.405Z,20.35
2022-07-29T23:42:43.430Z,20.34
2022-07-29T23:45:12.337Z,20.33
2022-07-29T23:47:40.936Z,20.33
2022-07-29T23:50:09.769Z,20.32
2022-07-29T23:52:38.135Z,20.32
2022-07-29T23:55:36.610Z,20.30
2022-07-29T23:57:54.785Z,20.28
